createdAt,value
2018-07-14T00:01:06.496Z,101676.73
2018-07-14T00:03:36.215Z,101680.77
2018-07-14T00:06:05.980Z,101684.69
2018-07-14T00:08:35.486Z,101685.18
2018-07-14T00:11:05.075Z,101690.94
2018-07-14T00:13:34.723Z,101701.62
2018-07-14T00:16:04.787Z,101697.82
2018-07-14T00:18:35.470Z,101696.32
2018-07-14T00:21:05.377Z,101688.37
2018-07-14T00:23:34.916Z,101694.09
2018-07-14T00:26:04.594Z,101700.91
2018-07-14T00:28:34.898Z,101701.52
2018-07-14T00:31:04.504Z,101700.78
2018-07-14T00:33:34.203Z,101698.83
2018-07-14T00:36:04.238Z,101699.65
2018-07-14T00:38:33.923Z,101693.32
2018-07-14T00:41:03.810Z,101691.81
2018-07-14T00:43:33.781Z,101695.12
2018-07-14T00:46:03.896Z,101696.59
2018-07-14T00:48:33.511Z,101693.20
2018-07-14T00:51:03.325Z,101695.28
2018-07-14T00:53:33.643Z,101686.25
2018-07-14T00:56:03.524Z,101692.59
2018-07-14T00:58:33.200Z,101688.95
2018-07-14T01:01:02.676Z,101683.41
2018-07-14T01:03:32.107Z,101689.31
2018-07-14T01:06:01.825Z,101688.09
2018-07-14T01:08:31.495Z,101690.87
2018-07-14T01:11:01.108Z,101683.66
2018-07-14T01:13:31.098Z,101687.45
2018-07-14T01:16:00.914Z,101683.56
2018-07-14T01:18:30.550Z,101681.73
2018-07-14T01:21:00.344Z,101680.02
2018-07-14T01:23:29.818Z,101682.83
2018-07-14T01:25:59.472Z,101689.56
2018-07-14T01:28:30.633Z,101680.50
2018-07-14T01:31:00.536Z,101686.87
2018-07-14T01:33:30.298Z,101682.58
2018-07-14T01:36:00.138Z,101674.14
2018-07-14T01:38:30.079Z,101682.61
2018-07-14T01:40:59.904Z,101680.38
2018-07-14T01:43:29.510Z,101682.09
2018-07-14T01:45:59.109Z,101683.34
2018-07-14T01:48:28.683Z,101667.19
2018-07-14T01:50:59.525Z,101674.87
2018-07-14T01:53:31.995Z,101684.66
2018-07-14T01:56:02.700Z,101679.64
2018-07-14T01:58:32.689Z,101675.23
2018-07-14T02:01:02.423Z,101680.13
2018-07-14T02:03:32.577Z,101680.03
2018-07-14T02:06:02.512Z,101686.16
2018-07-14T02:08:32.498Z,101683.98
2018-07-14T02:11:03.081Z,101683.39
2018-07-14T02:13:32.976Z,101684.37
2018-07-14T02:16:02.660Z,101683.14
2018-07-14T02:18:32.676Z,101692.06
2018-07-14T02:21:02.434Z,101680.09
2018-07-14T02:23:32.290Z,101684.25
2018-07-14T02:26:02.161Z,101687.80
2018-07-14T02:28:31.742Z,101685.97
2018-07-14T02:31:01.637Z,101690.03
2018-07-14T02:33:31.701Z,101674.72
2018-07-14T02:36:01.381Z,101673.34
2018-07-14T02:38:31.407Z,101672.62
2018-07-14T02:41:01.784Z,101671.89
2018-07-14T02:43:31.824Z,101673.23
2018-07-14T02:46:01.644Z,101677.88
2018-07-14T02:48:32.264Z,101679.59
2018-07-14T02:51:02.035Z,101668.46
2018-07-14T02:53:32.002Z,101669.44
2018-07-14T02:56:02.120Z,101667.95
2018-07-14T02:58:32.358Z,101665.16
2018-07-14T03:01:02.809Z,101671.02
2018-07-14T03:03:32.566Z,101668.72
2018-07-14T03:06:02.510Z,101666.76
2018-07-14T03:08:33.548Z,101670.67
2018-07-14T03:11:03.883Z,101670.80
2018-07-14T03:13:33.929Z,101674.70
2018-07-14T03:16:05.137Z,101669.07
2018-07-14T03:18:35.277Z,101677.55
2018-07-14T03:21:04.893Z,101679.75
2018-07-14T03:23:34.845Z,101679.88
2018-07-14T03:26:04.542Z,101675.57
2018-07-14T03:28:34.204Z,101675.32
2018-07-14T03:31:04.337Z,101668.47
2018-07-14T03:33:34.553Z,101678.03
2018-07-14T03:36:04.463Z,101678.89
2018-07-14T03:38:34.291Z,101675.68
2018-07-14T03:41:04.314Z,101682.06
2018-07-14T03:43:34.620Z,101683.28
2018-07-14T03:46:04.525Z,101672.73
2018-07-14T03:48:34.410Z,101677.02
2018-07-14T03:51:03.945Z,101675.06
2018-07-14T03:53:33.614Z,101675.95
2018-07-14T03:56:03.384Z,101679.88
2018-07-14T03:58:33.128Z,101675.69
2018-07-14T04:01:03.599Z,101679.17
2018-07-14T04:03:33.532Z,101673.48
2018-07-14T04:06:04.062Z,101676.54
2018-07-14T04:08:34.045Z,101676.08
2018-07-14T04:11:03.854Z,101667.87
2018-07-14T04:13:36.014Z,101667.89
2018-07-14T04:16:05.943Z,101671.94
2018-07-14T04:18:37.238Z,101662.34
2018-07-14T04:21:07.357Z,101663.55
2018-07-14T04:23:37.450Z,101663.55
2018-07-14T04:26:07.521Z,101655.97
2018-07-14T04:28:37.483Z,101656.44
2018-07-14T04:31:07.603Z,101662.58
2018-07-14T04:33:37.879Z,101657.77
2018-07-14T04:36:07.562Z,101656.32
2018-07-14T04:38:37.978Z,101649.81
2018-07-14T04:41:08.182Z,101653.33
2018-07-14T04:43:38.233Z,101654.28
2018-07-14T04:46:09.099Z,101653.75
2018-07-14T04:48:39.472Z,101654.84
2018-07-14T04:51:09.235Z,101654.13
2018-07-14T04:53:39.262Z,101658.16
2018-07-14T04:56:09.137Z,101664.25
2018-07-14T04:58:38.819Z,101664.25
2018-07-14T05:01:08.835Z,101663.66
2018-07-14T05:03:38.290Z,101667.61
2018-07-14T05:06:07.790Z,101667.77
2018-07-14T05:08:37.469Z,101679.41
2018-07-14T05:11:07.478Z,101671.06
2018-07-14T05:13:40.264Z,101678.16
2018-07-14T05:16:10.081Z,101685.38
2018-07-14T05:18:39.643Z,101679.51
2018-07-14T05:21:09.231Z,101688.67
2018-07-14T05:23:38.981Z,101689.18
2018-07-14T05:26:08.522Z,101690.43
2018-07-14T05:28:39.427Z,101691.27
2018-07-14T05:31:09.103Z,101693.20
2018-07-14T05:33:38.698Z,101698.94
2018-07-14T05:36:08.218Z,101699.95
2018-07-14T05:38:37.751Z,101698.47
2018-07-14T05:41:07.369Z,101693.34
2018-07-14T05:43:36.998Z,101690.45
2018-07-14T05:46:07.243Z,101680.98
2018-07-14T05:48:36.674Z,101691.13
2018-07-14T05:51:06.298Z,101684.49
2018-07-14T05:53:35.931Z,101691.63
2018-07-14T05:56:05.396Z,101685.12
2018-07-14T05:58:34.956Z,101693.19
2018-07-14T06:01:04.765Z,101701.34
2018-07-14T06:03:34.625Z,101702.47
2018-07-14T06:06:04.544Z,101706.91
2018-07-14T06:08:35.849Z,101703.23
2018-07-14T06:11:05.944Z,101702.47
2018-07-14T06:13:35.807Z,101710.23
2018-07-14T06:16:05.686Z,101702.86
2018-07-14T06:18:35.598Z,101704.01
2018-07-14T06:21:05.406Z,101702.23
2018-07-14T06:23:35.208Z,101707.97
2018-07-14T06:26:05.283Z,101705.36
2018-07-14T06:28:35.345Z,101706.66
2018-07-14T06:31:05.453Z,101707.83
2018-07-14T06:33:35.349Z,101702.86
2018-07-14T06:36:05.500Z,101705.40
2018-07-14T06:38:36.052Z,101712.47
2018-07-14T06:41:08.119Z,101714.67
2018-07-14T06:43:37.674Z,101725.11
2018-07-14T06:46:07.661Z,101715.20
2018-07-14T06:48:37.269Z,101720.34
2018-07-14T06:51:07.091Z,101716.97
2018-07-14T06:53:36.771Z,101724.97
2018-07-14T06:56:06.372Z,101723.57
2018-07-14T06:58:36.739Z,101736.61
2018-07-14T07:01:06.336Z,101730.75
2018-07-14T07:03:36.220Z,101734.31
2018-07-14T07:06:06.282Z,101730.84
2018-07-14T07:08:35.950Z,101735.59
2018-07-14T07:11:05.591Z,101734.80
2018-07-14T07:13:35.532Z,101741.03
2018-07-14T07:16:05.541Z,101740.84
2018-07-14T07:18:35.302Z,101742.70
2018-07-14T07:21:05.467Z,101737.34
2018-07-14T07:23:35.670Z,101737.97
2018-07-14T07:26:05.699Z,101743.01
2018-07-14T07:28:35.584Z,101732.56
2018-07-14T07:31:05.433Z,101735.31
2018-07-14T07:33:35.125Z,101733.28
2018-07-14T07:36:04.856Z,101746.48
2018-07-14T07:38:34.591Z,101741.66
2018-07-14T07:41:04.494Z,101743.49
2018-07-14T07:43:34.522Z,101739.08
2018-07-14T07:46:04.284Z,101738.39
2018-07-14T07:48:35.459Z,101740.88
2018-07-14T07:51:04.966Z,101747.40
2018-07-14T07:53:34.582Z,101743.89
2018-07-14T07:56:04.250Z,101750.16
2018-07-14T07:58:33.860Z,101746.91
2018-07-14T08:01:07.271Z,101750.82
2018-07-14T08:03:37.273Z,101750.74
2018-07-14T08:06:06.811Z,101752.62
2018-07-14T08:08:36.850Z,101755.73
2018-07-14T08:11:07.297Z,101753.05
2018-07-14T08:13:37.049Z,101748.78
2018-07-14T08:16:06.972Z,101750.70
2018-07-14T08:18:36.954Z,101754.22
2018-07-14T08:21:06.929Z,101746.41
2018-07-14T08:23:37.952Z,101756.75
2018-07-14T08:26:08.131Z,101752.09
2018-07-14T08:28:37.754Z,101757.36
2018-07-14T08:31:07.700Z,101754.05
2018-07-14T08:33:38.784Z,101756.73
2018-07-14T08:36:10.496Z,101757.50
2018-07-14T08:38:40.405Z,101763.91
2018-07-14T08:41:12.550Z,101761.58
2018-07-14T08:43:43.103Z,101765.67
2018-07-14T08:46:12.496Z,101764.72
2018-07-14T08:48:42.640Z,101770.00
2018-07-14T08:51:12.033Z,101769.30
2018-07-14T08:53:41.319Z,101766.70
2018-07-14T08:56:10.955Z,101768.91
2018-07-14T08:58:40.289Z,101767.82
2018-07-14T09:01:09.480Z,101769.27
2018-07-14T09:03:39.273Z,101770.12
2018-07-14T09:06:08.962Z,101766.92
2018-07-14T09:08:39.244Z,101768.27
2018-07-14T09:11:09.574Z,101771.20
2018-07-14T09:13:39.172Z,101765.39
2018-07-14T09:16:08.830Z,101767.17
2018-07-14T09:18:38.550Z,101771.45
2018-07-14T09:21:08.451Z,101768.92
2018-07-14T09:23:38.048Z,101774.94
2018-07-14T09:26:07.704Z,101768.25
2018-07-14T09:28:37.552Z,101775.15
2018-07-14T09:31:08.336Z,101773.25
2018-07-14T09:33:39.309Z,101767.62
2018-07-14T09:36:08.880Z,101766.39
2018-07-14T09:38:40.304Z,101769.86
2018-07-14T09:41:10.049Z,101769.77
2018-07-14T09:43:39.990Z,101767.38
2018-07-14T09:46:09.559Z,101771.69
2018-07-14T09:48:39.531Z,101762.00
2018-07-14T09:51:09.427Z,101756.48
2018-07-14T09:53:39.128Z,101756.28
2018-07-14T09:56:08.659Z,101765.19
2018-07-14T09:58:38.279Z,101761.97
2018-07-14T10:01:10.816Z,101761.34
2018-07-14T10:03:40.489Z,101761.48
2018-07-14T10:06:10.486Z,101757.72
2018-07-14T10:08:40.060Z,101764.64
2018-07-14T10:11:09.659Z,101773.83
2018-07-14T10:13:41.163Z,101761.63
2018-07-14T10:16:11.416Z,101752.95
2018-07-14T10:18:41.367Z,101749.59
2018-07-14T10:21:12.002Z,101746.38
2018-07-14T10:23:43.154Z,101750.09
2018-07-14T10:26:13.013Z,101756.70
2018-07-14T10:28:42.466Z,101753.35
2018-07-14T10:31:12.345Z,101750.30
2018-07-14T10:33:43.227Z,101755.52
2018-07-14T10:36:13.064Z,101761.28
2018-07-14T10:38:42.861Z,101751.86
2018-07-14T10:41:12.990Z,101748.08
2018-07-14T10:43:42.633Z,101741.50
2018-07-14T10:46:12.303Z,101739.14
2018-07-14T10:48:42.354Z,101737.72
2018-07-14T10:51:13.185Z,101735.28
2018-07-14T10:53:42.782Z,101734.92
2018-07-14T10:56:12.307Z,101728.65
2018-07-14T10:58:42.381Z,101732.11
2018-07-14T11:01:21.120Z,101735.22
2018-07-14T11:03:53.162Z,101722.73
2018-07-14T11:06:22.465Z,101732.03
2018-07-14T11:08:51.803Z,101723.89
2018-07-14T11:11:21.222Z,101728.76
2018-07-14T11:13:52.651Z,101737.24
2018-07-14T11:16:22.354Z,101722.54
2018-07-14T11:18:51.688Z,101731.41
2018-07-14T11:21:21.108Z,101736.18
2018-07-14T11:23:51.914Z,101730.66
2018-07-14T11:26:22.050Z,101737.31
2018-07-14T11:28:51.900Z,101732.61
2018-07-14T11:31:21.204Z,101731.19
2018-07-14T11:33:50.533Z,101733.33
2018-07-14T11:36:19.935Z,101729.00
2018-07-14T11:38:49.645Z,101722.13
2018-07-14T11:41:19.054Z,101724.06
2018-07-14T11:43:48.486Z,101727.84
2018-07-14T11:46:17.909Z,101719.27
2018-07-14T11:48:47.195Z,101726.14
2018-07-14T11:51:16.590Z,101712.70
2018-07-14T11:53:45.976Z,101713.84
2018-07-14T11:56:15.627Z,101711.37
2018-07-14T11:58:45.376Z,101716.02
2018-07-14T12:01:14.830Z,101717.04
2018-07-14T12:03:44.475Z,101717.09
2018-07-14T12:06:14.059Z,101713.95
2018-07-14T12:08:43.993Z,101707.59
2018-07-14T12:11:13.533Z,101703.17
2018-07-14T12:13:43.172Z,101705.34
2018-07-14T12:16:14.546Z,101708.83
2018-07-14T12:18:44.100Z,101707.48
2018-07-14T12:21:14.353Z,101702.36
2018-07-14T12:23:44.149Z,101700.38
2018-07-14T12:26:13.896Z,101704.37
2018-07-14T12:28:43.741Z,101708.14
2018-07-14T12:31:13.554Z,101705.56
2018-07-14T12:33:44.000Z,101695.34
2018-07-14T12:36:15.028Z,101691.56
2018-07-14T12:38:44.855Z,101690.23
2018-07-14T12:41:15.162Z,101696.23
2018-07-14T12:43:45.027Z,101696.96
2018-07-14T12:46:16.298Z,101697.00
2018-07-14T12:48:46.575Z,101696.96
2018-07-14T12:51:16.153Z,101685.30
2018-07-14T12:53:47.013Z,101687.70
2018-07-14T12:56:16.461Z,101685.80
2018-07-14T12:58:45.911Z,101678.77
2018-07-14T13:01:15.299Z,101678.08
2018-07-14T13:03:44.913Z,101673.29
2018-07-14T13:06:15.459Z,101680.38
2018-07-14T13:08:45.303Z,101675.10
2018-07-14T13:11:18.375Z,101672.79
2018-07-14T13:13:47.902Z,101666.10
2018-07-14T13:16:30.668Z,101668.69
2018-07-14T13:19:02.653Z,101670.56
2018-07-14T13:21:33.370Z,101669.07
2018-07-14T13:24:06.709Z,101670.38
2018-07-14T13:26:37.486Z,101670.30
2018-07-14T13:29:08.532Z,101662.73
2018-07-14T13:31:38.539Z,101662.27
2018-07-14T13:34:08.275Z,101664.46
2018-07-14T13:36:38.473Z,101656.95
2018-07-14T13:39:09.365Z,101653.45
2018-07-14T13:41:39.435Z,101650.13
2018-07-14T13:44:09.719Z,101647.59
2018-07-14T13:46:41.156Z,101650.06
2018-07-14T13:49:10.941Z,101651.52
2018-07-14T13:51:40.880Z,101648.05
2018-07-14T13:54:11.106Z,101647.50
2018-07-14T13:56:40.791Z,101645.92
2018-07-14T13:59:10.662Z,101649.75
2018-07-14T14:01:41.241Z,101649.91
2018-07-14T14:04:11.240Z,101646.58
2018-07-14T14:06:41.397Z,101644.88
2018-07-14T14:09:12.165Z,101641.97
2018-07-14T14:11:42.305Z,101635.12
2018-07-14T14:14:13.080Z,101634.73
2018-07-14T14:16:42.966Z,101631.33
2018-07-14T14:19:12.885Z,101631.43
2018-07-14T14:21:42.627Z,101638.70
2018-07-14T14:24:12.082Z,101631.91
2018-07-14T14:26:42.040Z,101622.36
2018-07-14T14:29:12.257Z,101624.27
2018-07-14T14:31:42.510Z,101623.06
2018-07-14T14:34:12.028Z,101617.86
2018-07-14T14:36:42.100Z,101617.34
2018-07-14T14:39:11.537Z,101614.73
2018-07-14T14:41:41.178Z,101616.25
2018-07-14T14:44:11.043Z,101611.66
2018-07-14T14:46:40.858Z,101620.64
2018-07-14T14:49:12.357Z,101613.22
2018-07-14T14:51:41.678Z,101608.98
2018-07-14T14:54:11.396Z,101607.75
2018-07-14T14:56:41.750Z,101597.77
2018-07-14T14:59:11.350Z,101596.07
2018-07-14T15:01:41.426Z,101594.05
2018-07-14T15:04:11.284Z,101595.72
2018-07-14T15:06:41.689Z,101596.27
2018-07-14T15:09:10.960Z,101597.73
2018-07-14T15:11:40.966Z,101585.85
2018-07-14T15:14:10.545Z,101591.56
2018-07-14T15:16:40.314Z,101587.80
2018-07-14T15:19:10.918Z,101584.70
2018-07-14T15:21:40.585Z,101581.91
2018-07-14T15:24:10.298Z,101584.08
2018-07-14T15:26:40.557Z,101592.91
2018-07-14T15:29:10.346Z,101586.17
2018-07-14T15:31:40.349Z,101586.84
2018-07-14T15:34:10.328Z,101588.50
2018-07-14T15:36:40.398Z,101581.33
2018-07-14T15:39:10.869Z,101579.75
2018-07-14T15:41:40.704Z,101577.89
2018-07-14T15:44:10.658Z,101571.13
2018-07-14T15:46:40.375Z,101572.34
2018-07-14T15:49:10.206Z,101561.45
2018-07-14T15:51:40.018Z,101564.86
2018-07-14T15:54:13.598Z,101567.31
2018-07-14T15:56:43.233Z,101571.80
2018-07-14T15:59:12.945Z,101568.64
2018-07-14T16:01:43.003Z,101573.54
2018-07-14T16:04:12.826Z,101574.86
2018-07-14T16:06:42.739Z,101577.36
2018-07-14T16:09:14.381Z,101581.64
2018-07-14T16:11:43.948Z,101582.78
2018-07-14T16:14:13.593Z,101578.55
2018-07-14T16:16:43.649Z,101581.51
2018-07-14T16:19:14.998Z,101586.00
2018-07-14T16:21:44.573Z,101587.70
2018-07-14T16:24:14.445Z,101587.29
2018-07-14T16:26:44.146Z,101585.69
2018-07-14T16:29:13.560Z,101590.72
2018-07-14T16:31:43.011Z,101590.84
2018-07-14T16:34:12.405Z,101587.84
2018-07-14T17:58:43.468Z,101561.92
2018-07-14T18:01:13.403Z,101572.34
2018-07-14T18:03:43.114Z,101564.15
2018-07-14T18:06:13.979Z,101565.36
2018-07-14T18:08:43.629Z,101568.48
2018-07-14T18:11:12.888Z,101573.26
2018-07-14T18:13:42.700Z,101565.13
2018-07-14T18:16:12.959Z,101561.77
2018-07-14T18:18:43.240Z,101569.19
2018-07-14T18:21:12.676Z,101567.41
2018-07-14T18:23:41.931Z,101576.91
2018-07-14T18:26:11.470Z,101573.20
2018-07-14T18:28:41.106Z,101575.77
2018-07-14T18:31:10.610Z,101575.57
2018-07-14T18:33:40.399Z,101572.68
2018-07-14T18:36:09.797Z,101576.77
2018-07-14T18:38:39.436Z,101576.64
2018-07-14T18:41:09.078Z,101575.16
2018-07-14T18:43:39.240Z,101577.54
2018-07-14T18:46:09.031Z,101568.17
2018-07-14T18:48:42.851Z,101568.61
2018-07-14T18:51:12.219Z,101569.81
2018-07-14T18:53:41.623Z,101571.13
2018-07-14T18:56:11.816Z,101574.20
2018-07-14T18:58:41.913Z,101581.16
2018-07-14T19:01:11.361Z,101574.78
2018-07-14T19:03:40.893Z,101578.72
2018-07-14T19:06:10.544Z,101580.27
2018-07-14T19:08:41.069Z,101583.83
2018-07-14T19:11:10.551Z,101593.27
2018-07-14T19:13:40.084Z,101587.36
2018-07-14T19:16:09.862Z,101587.00
2018-07-14T19:18:40.421Z,101585.44
2018-07-14T19:21:09.827Z,101587.23
2018-07-14T19:23:39.306Z,101585.87
2018-07-14T19:26:10.188Z,101584.77
2018-07-14T19:28:41.008Z,101585.98
2018-07-14T19:31:11.203Z,101592.95
2018-07-14T19:33:40.871Z,101590.78
2018-07-14T19:36:10.508Z,101596.66
2018-07-14T19:38:42.439Z,101590.45
2018-07-14T19:41:11.715Z,101588.92
2018-07-14T19:43:42.525Z,101590.20
2018-07-14T19:46:12.479Z,101597.91
2018-07-14T19:48:42.182Z,101599.94
2018-07-14T19:51:12.482Z,101602.17
2018-07-14T19:53:42.479Z,101596.34
2018-07-14T19:56:12.435Z,101603.45
2018-07-14T19:58:42.227Z,101599.02
2018-07-14T20:01:11.579Z,101601.08
2018-07-14T20:03:40.962Z,101606.28
2018-07-14T20:06:10.919Z,101603.28
2018-07-14T20:08:40.894Z,101607.21
2018-07-14T20:11:10.702Z,101605.61
2018-07-14T20:13:40.497Z,101604.53
2018-07-14T20:16:11.036Z,101605.40
2018-07-14T20:18:40.950Z,101601.41
2018-07-14T20:21:10.760Z,101605.87
2018-07-14T20:23:40.372Z,101605.78
2018-07-14T20:26:10.280Z,101606.77
2018-07-14T20:28:39.874Z,101604.39
2018-07-14T20:31:09.722Z,101604.48
2018-07-14T20:33:39.432Z,101608.53
2018-07-14T20:36:09.121Z,101604.98
2018-07-14T20:38:39.513Z,101609.08
2018-07-14T20:41:09.315Z,101604.53
2018-07-14T20:43:38.939Z,101603.67
2018-07-14T20:46:08.693Z,101607.77
2018-07-14T20:48:38.471Z,101618.94
2018-07-14T20:51:08.470Z,101618.22
2018-07-14T20:53:38.530Z,101615.88
2018-07-14T20:56:08.534Z,101614.92
2018-07-14T20:58:38.688Z,101618.50
2018-07-14T21:01:09.832Z,101618.84
2018-07-14T21:03:39.428Z,101612.84
2018-07-14T21:06:09.730Z,101613.68
2018-07-14T21:08:39.850Z,101613.20
2018-07-14T21:11:10.153Z,101615.40
2018-07-14T21:13:40.604Z,101611.12
2018-07-14T21:16:10.515Z,101617.59
2018-07-14T21:18:40.517Z,101621.04
2018-07-14T21:21:11.447Z,101614.55
2018-07-14T21:23:41.762Z,101620.09
2018-07-14T21:26:12.096Z,101616.52
2018-07-14T21:28:42.495Z,101620.81
2018-07-14T21:31:13.022Z,101619.47
2018-07-14T21:33:42.849Z,101629.60
2018-07-14T21:36:13.521Z,101628.77
2018-07-14T21:38:43.717Z,101628.51
2018-07-14T21:41:13.910Z,101625.92
2018-07-14T21:43:43.791Z,101625.44
2018-07-14T21:46:13.399Z,101627.89
2018-07-14T21:48:43.157Z,101634.59
2018-07-14T21:51:13.071Z,101642.04
2018-07-14T21:53:42.573Z,101638.86
2018-07-14T21:56:12.937Z,101638.83
2018-07-14T21:58:42.541Z,101635.09
2018-07-14T22:01:17.309Z,101632.11
2018-07-14T22:03:46.693Z,101641.66
2018-07-14T22:06:16.075Z,101632.73
2018-07-14T22:08:45.637Z,101646.55
2018-07-14T22:11:16.578Z,101641.81
2018-07-14T22:13:48.099Z,101643.01
2018-07-14T22:16:17.518Z,101640.96
2018-07-14T22:18:46.983Z,101640.31
2018-07-14T22:21:16.347Z,101638.72
2018-07-14T22:23:45.697Z,101641.38
2018-07-14T22:26:15.411Z,101637.83
2018-07-14T22:28:44.909Z,101642.84
2018-07-14T22:31:17.188Z,101635.75
2018-07-14T22:33:46.711Z,101639.53
2018-07-14T22:36:16.292Z,101630.23
2018-07-14T22:38:45.855Z,101630.20
2018-07-14T22:41:15.571Z,101625.06
2018-07-14T22:43:45.156Z,101632.63
2018-07-14T22:46:14.871Z,101628.44
2018-07-14T22:48:46.255Z,101622.92
2018-07-14T22:51:17.128Z,101630.46
2018-07-14T22:53:46.751Z,101625.56
2018-07-14T22:56:16.423Z,101628.98
2018-07-14T22:58:46.421Z,101627.64
2018-07-14T23:01:16.165Z,101620.88
2018-07-14T23:03:46.284Z,101614.75
2018-07-14T23:06:15.917Z,101625.50
2018-07-14T23:08:45.590Z,101624.95
2018-07-14T23:11:15.634Z,101629.92
2018-07-14T23:13:45.745Z,101629.90
2018-07-14T23:16:15.694Z,101629.46
2018-07-14T23:18:45.289Z,101625.75
2018-07-14T23:21:15.116Z,101625.75
2018-07-14T23:23:44.763Z,101621.97
2018-07-14T23:26:14.227Z,101623.85
2018-07-14T23:28:43.774Z,101625.03
2018-07-14T23:31:13.446Z,101618.30
2018-07-14T23:33:42.988Z,101618.71
2018-07-14T23:36:12.475Z,101615.05
2018-07-14T23:38:42.141Z,101617.13
2018-07-14T23:41:11.601Z,101619.88
2018-07-14T23:43:41.108Z,101614.27
2018-07-14T23:46:12.465Z,101613.33
2018-07-14T23:48:41.745Z,101616.15
2018-07-14T23:51:15.172Z,101609.92
2018-07-14T23:53:44.514Z,101610.75
2018-07-14T23:56:13.952Z,101611.91
2018-07-14T23:58:43.225Z,101614.84
